Time;durP1;ratioP1;P1;durP2;ratioP2;P2;SDS_P1;SDS_P2;PMS_P1;PMS_P2;Temp;Humidity;BMP_temperature;BMP_pressure;BME280_temperature;BME280_humidity;BME280_pressure;Samples;Min_cycle;Max_cycle;Signal;HPM_P1;HPM_P2
2021/12/23 00:01:44;;;;;;;1.10;1.10;;;;;;;-21.25;76.71;99058.91;4945235;29;20592;-90
2021/12/23 00:04:12;;;;;;;1.40;1.30;;;;;;;-21.23;76.94;99064.81;4944706;29;20054;-89
2021/12/23 00:06:41;;;;;;;1.40;1.30;;;;;;;-21.22;77.01;99059.63;4937847;29;20056;-91
2021/12/23 00:09:08;;;;;;;1.40;1.30;;;;;;;-21.21;76.87;99058.78;4949379;29;20051;-90
2021/12/23 00:11:36;;;;;;;1.60;1.50;;;;;;;-21.20;77.11;99067.28;4951837;29;20048;-91
2021/12/23 00:14:06;;;;;;;1.30;1.20;;;;;;;-21.17;77.14;99056.09;4945017;29;20071;-91
2021/12/23 00:24:31;;;;;;;1.30;1.20;;;;;;;-21.32;76.41;99044.56;4944346;29;20048;-90
2021/12/23 00:26:59;;;;;;;1.50;1.40;;;;;;;-21.37;76.50;99046.44;4943848;29;20052;-91
2021/12/23 00:29:26;;;;;;;1.50;1.40;;;;;;;-21.39;75.97;99051.66;4926395;29;20074;-89
2021/12/23 00:31:53;;;;;;;1.40;1.30;;;;;;;-21.37;76.11;99043.88;4944226;29;20048;-91
2021/12/23 00:34:20;;;;;;;1.40;1.30;;;;;;;-21.37;75.54;99052.41;4927439;29;20059;-91
2021/12/23 00:36:48;;;;;;;1.52;1.42;;;;;;;-21.50;75.38;99043.44;4944616;29;20048;-91
2021/12/23 00:39:16;;;;;;;1.23;1.20;;;;;;;-21.50;75.35;99043.44;4930615;29;20056;-92
2021/12/23 00:41:45;;;;;;;1.38;1.27;;;;;;;-21.50;75.26;99026.31;4907993;29;20048;-91
2021/12/23 00:44:13;;;;;;;1.67;1.58;;;;;;;-21.50;75.15;99031.44;4907788;29;20044;-91
2021/12/23 00:46:40;;;;;;;1.50;1.40;;;;;;;-21.46;75.45;99033.03;4924339;29;20059;-89
2021/12/23 00:49:07;;;;;;;1.40;1.30;;;;;;;-21.40;75.33;99026.06;4924031;29;20091;-90
2021/12/23 00:51:35;;;;;;;1.10;1.10;;;;;;;-21.43;75.32;99014.19;4924087;29;20064;-91
2021/12/23 00:54:05;;;;;;;1.60;1.50;;;;;;;-21.47;75.26;99025.38;4924419;29;20076;-91
2021/12/23 00:56:34;;;;;;;1.50;1.40;;;;;;;-21.41;75.31;99022.66;4931378;29;20052;-90
2021/12/23 00:59:02;;;;;;;1.50;1.40;;;;;;;-21.32;75.24;99022.34;4933232;29;20063;-89
2021/12/23 01:01:30;;;;;;;1.50;1.40;;;;;;;-21.24;75.13;99027.25;4933848;29;20044;-90
2021/12/23 01:03:57;;;;;;;1.40;1.30;;;;;;;-21.11;75.36;99020.00;4932364;29;20076;-89
2021/12/23 01:06:25;;;;;;;1.60;1.50;;;;;;;-21.06;75.26;99019.00;4929335;29;20115;-90
2021/12/23 01:08:52;;;;;;;1.40;1.30;;;;;;;-20.97;75.32;99017.03;4936300;29;20048;-89
2021/12/23 01:11:19;;;;;;;1.35;1.25;;;;;;;-20.96;75.25;99019.56;4937259;29;20051;-89
2021/12/23 01:14:01;;;;;;;1.20;1.20;;;;;;;-20.87;75.40;99018.44;4926374;29;20080;-91
2021/12/23 01:19:18;;;;;;;1.40;1.30;;;;;;;-20.84;75.81;99023.44;4909498;29;20062;-88
2021/12/23 01:21:45;;;;;;;1.40;1.30;;;;;;;-20.81;76.01;99024.22;4921983;29;20060;-87
2021/12/23 01:24:12;;;;;;;1.40;1.30;;;;;;;-20.71;76.05;99026.47;4921341;29;20115;-88
2021/12/23 01:26:39;;;;;;;1.55;1.45;;;;;;;-20.63;75.96;99025.34;4920930;29;20059;-89
2021/12/23 01:29:07;;;;;;;1.40;1.30;;;;;;;-20.58;75.96;99028.59;4921245;29;20051;-90
2021/12/23 01:31:38;;;;;;;1.10;1.10;;;;;;;-20.45;76.23;99023.88;4922348;29;20050;-90
2021/12/23 01:34:06;;;;;;;1.40;1.30;;;;;;;-20.38;76.18;99019.34;4934274;29;20052;-86
2021/12/23 01:36:33;;;;;;;1.40;1.30;;;;;;;-20.36;76.12;99022.72;4923022;29;20080;-88
2021/12/23 01:39:01;;;;;;;1.35;1.25;;;;;;;-20.31;76.19;99025.13;4920234;29;20095;-89
2021/12/23 01:41:30;;;;;;;1.40;1.30;;;;;;;-20.27;76.19;99030.13;4919860;29;20512;-88
2021/12/23 01:43:58;;;;;;;1.42;1.33;;;;;;;-20.18;76.36;99027.22;4890433;29;20044;-89
2021/12/23 01:46:25;;;;;;;1.45;1.35;;;;;;;-20.05;76.46;99032.75;4921390;29;20056;-89
2021/12/23 01:48:55;;;;;;;1.50;1.40;;;;;;;-19.99;76.60;99027.44;4922085;29;20087;-90
2021/12/23 01:51:25;;;;;;;1.10;1.10;;;;;;;-19.91;76.65;99027.16;4921693;29;20520;-90
2021/12/23 01:53:52;;;;;;;1.30;1.20;;;;;;;-19.82;76.64;99020.84;4921433;29;20048;-90
2021/12/23 01:56:19;;;;;;;1.30;1.20;;;;;;;-19.75;76.66;99022.31;4921819;29;20052;-90
2021/12/23 01:58:46;;;;;;;1.15;1.15;;;;;;;-19.71;76.83;99017.00;4903812;29;20051;-89
2021/12/23 02:01:14;;;;;;;1.27;1.20;;;;;;;-19.62;76.79;99014.97;4920653;29;20135;-90
2021/12/23 02:03:41;;;;;;;1.05;1.05;;;;;;;-19.55;76.88;99013.84;4920469;29;20115;-90
2021/12/23 02:06:09;;;;;;;1.10;1.10;;;;;;;-19.48;76.98;99023.84;4903338;29;20119;-89
2021/12/23 02:08:37;;;;;;;1.08;1.08;;;;;;;-19.39;77.16;99016.69;4920164;29;20052;-89
2021/12/23 02:11:06;;;;;;;1.10;1.10;;;;;;;-19.37;77.00;99022.59;4922102;29;20048;-89
2021/12/23 02:13:53;;;;;;;1.25;1.20;;;;;;;-19.46;76.91;99021.22;4896837;29;20075;-90
2021/12/23 02:16:20;;;;;;;1.50;1.40;;;;;;;-19.45;76.94;99010.03;4907444;29;20048;-89
2021/12/23 02:18:47;;;;;;;1.25;1.17;;;;;;;-19.44;76.65;99001.44;4924331;29;20048;-89
2021/12/23 02:21:15;;;;;;;1.05;1.05;;;;;;;-19.37;76.70;99014.91;4927355;29;20103;-89
2021/12/23 02:23:42;;;;;;;1.48;1.38;;;;;;;-19.37;76.48;99008.00;4926306;29;20547;-90
2021/12/23 02:26:09;;;;;;;1.13;1.13;;;;;;;-19.38;76.46;99005.53;4895233;29;20052;-90
2021/12/23 02:28:36;;;;;;;1.10;1.10;;;;;;;-19.37;76.33;99002.88;4931773;29;20056;-89
2021/12/23 02:31:03;;;;;;;1.00;1.00;;;;;;;-19.36;76.50;99002.00;4931315;29;20450;-91
2021/12/23 02:33:30;;;;;;;1.42;1.33;;;;;;;-19.33;76.66;99001.03;4928901;29;20048;-90
2021/12/23 02:35:58;;;;;;;1.10;1.10;;;;;;;-19.18;76.83;99000.44;4929247;29;20056;-89
2021/12/23 02:38:26;;;;;;;1.10;1.10;;;;;;;-19.12;76.70;99001.94;4928801;29;20512;-91
2021/12/23 02:40:53;;;;;;;1.50;1.40;;;;;;;-19.08;76.71;99011.22;4926006;29;20048;-91
2021/12/23 02:43:23;;;;;;;1.10;1.10;;;;;;;-19.08;76.79;99011.22;4924581;29;20056;-90
2021/12/23 02:45:53;;;;;;;1.35;1.25;;;;;;;-19.03;76.90;99006.75;4923814;29;20116;-90
2021/12/23 02:48:29;;;;;;;1.20;1.20;;;;;;;-18.92;76.72;99007.16;4923375;29;20134;-89
2021/12/23 02:50:57;;;;;;;1.30;1.20;;;;;;;-18.85;76.58;99006.00;4905525;29;20060;-89
2021/12/23 02:53:24;;;;;;;1.30;1.20;;;;;;;-18.84;76.44;99007.69;4922568;29;20052;-89
2021/12/23 02:55:56;;;;;;;1.10;1.10;;;;;;;-18.80;76.61;99018.69;4924629;29;20144;-90
2021/12/23 02:58:29;;;;;;;1.30;1.20;;;;;;;-18.69;76.45;99010.50;4923200;29;20085;-88
2021/12/23 03:00:58;;;;;;;1.30;1.20;;;;;;;-18.62;76.27;99017.09;4922783;29;20123;-90
2021/12/23 03:03:25;;;;;;;1.38;1.27;;;;;;;-18.58;76.22;99013.47;4905600;29;20052;-89
2021/12/23 03:05:55;;;;;;;1.38;1.27;;;;;;;-18.61;76.20;99016.19;4891939;29;20080;-91
2021/12/23 03:08:31;;;;;;;1.63;1.52;;;;;;;-18.58;76.27;99008.34;4932885;29;20074;-85
2021/12/23 03:10:59;;;;;;;1.30;1.20;;;;;;;-18.53;76.36;99008.16;4940506;29;20052;-91
2021/12/23 03:13:26;;;;;;;1.13;1.13;;;;;;;-18.47;76.26;99005.34;4913435;29;20574;-92
2021/12/23 03:15:54;;;;;;;1.35;1.25;;;;;;;-18.36;76.43;99013.44;4926895;29;20088;-87
2021/12/23 03:18:21;;;;;;;1.42;1.33;;;;;;;-18.32;76.14;99004.69;4922159;29;20405;-88
2021/12/23 03:20:49;;;;;;;1.23;1.20;;;;;;;-18.29;76.23;99008.88;4928100;29;20072;-91
2021/12/23 03:23:16;;;;;;;1.40;1.30;;;;;;;-18.24;76.15;99010.38;4910423;29;20075;-93
2021/12/23 03:25:43;;;;;;;1.10;1.10;;;;;;;-18.22;76.13;99003.41;4923875;29;20056;-87
2021/12/23 03:28:11;;;;;;;1.33;1.23;;;;;;;-18.22;76.23;99007.75;4925845;29;20052;-94
2021/12/23 03:30:38;;;;;;;1.27;1.17;;;;;;;-18.25;76.16;99000.13;4926893;29;20055;-92
2021/12/23 03:33:06;;;;;;;1.27;1.20;;;;;;;-18.17;76.44;99000.66;4909795;29;20060;-88
2021/12/23 03:35:36;;;;;;;1.23;1.20;;;;;;;-18.17;76.33;98990.34;4903606;29;20079;-87
2021/12/23 03:38:04;;;;;;;1.40;1.30;;;;;;;-18.13;76.43;98995.28;4924186;29;20052;-88
2021/12/23 03:40:32;;;;;;;1.35;1.25;;;;;;;-18.05;76.34;98981.22;4919071;29;20401;-88
2021/12/23 03:43:00;;;;;;;1.40;1.30;;;;;;;-18.07;76.28;98983.06;4920955;29;20062;-91
2021/12/23 03:45:27;;;;;;;1.40;1.30;;;;;;;-18.13;76.36;98986.72;4594744;28;10000605;-88
2021/12/23 03:47:57;;;;;;;1.25;1.20;;;;;;;-18.09;76.62;98972.81;4956915;29;20074;-89
2021/12/23 03:50:28;;;;;;;1.38;1.27;;;;;;;-18.13;76.61;98978.97;4902320;29;20051;-92
2021/12/23 03:52:55;;;;;;;1.50;1.40;;;;;;;-18.14;76.73;98978.16;4966951;29;20055;-93
2021/12/23 03:55:22;;;;;;;1.10;1.10;;;;;;;-18.12;76.91;98975.53;4966056;29;20051;-89
2021/12/23 03:57:49;;;;;;;1.45;1.35;;;;;;;-18.02;77.04;98973.41;4961363;29;20063;-93
2021/12/23 04:00:18;;;;;;;1.20;1.20;;;;;;;-17.97;76.91;98969.69;4965035;29;20044;-91
2021/12/23 04:02:46;;;;;;;1.10;1.10;;;;;;;-17.95;76.92;98967.91;4946430;29;20058;-92
2021/12/23 04:05:14;;;;;;;1.50;1.40;;;;;;;-17.90;76.91;98975.41;4950063;29;20059;-93
2021/12/23 04:07:43;;;;;;;1.17;1.17;;;;;;;-17.82;77.17;98975.06;4975435;29;20062;-95
2021/12/23 04:10:14;;;;;;;1.30;1.23;;;;;;;-17.73;76.96;98975.47;4957491;29;20146;-94
2021/12/23 04:12:42;;;;;;;1.30;1.20;;;;;;;-17.61;76.89;98968.09;4977057;29;20111;-96
2021/12/23 04:15:09;;;;;;;1.33;1.23;;;;;;;-17.65;76.64;98967.41;4976322;29;20051;-93
2021/12/23 04:17:37;;;;;;;1.30;1.20;;;;;;;-17.66;76.97;98963.16;4976469;29;20074;-96
2021/12/23 04:20:17;;;;;;;1.10;1.10;;;;;;;-17.64;77.04;98969.09;4978239;29;20055;-95
2021/12/23 04:22:47;;;;;;;1.17;1.17;;;;;;;-17.60;77.19;98960.28;4976357;29;20047;-94
2021/12/23 04:25:22;;;;;;;1.17;1.17;;;;;;;-17.58;77.22;98968.78;4977315;28;20057;-94
2021/12/23 04:27:55;;;;;;;1.10;1.10;;;;;;;-17.56;77.40;98979.06;4978062;29;20067;-95
2021/12/23 04:30:25;;;;;;;1.10;1.10;;;;;;;-17.50;77.48;98973.59;4960237;29;20106;-95
2021/12/23 04:32:53;;;;;;;1.35;1.25;;;;;;;-17.52;77.55;98970.25;4977315;28;20027;-95
2021/12/23 04:35:21;;;;;;;1.20;1.20;;;;;;;-17.45;77.78;98971.66;4960537;29;20098;-95
2021/12/23 04:37:48;;;;;;;1.10;1.10;;;;;;;-17.44;77.63;98967.31;4974200;29;20047;-94
2021/12/23 04:40:17;;;;;;;1.38;1.27;;;;;;;-17.44;77.60;98973.34;4973091;29;20047;-95
2021/12/23 04:42:47;;;;;;;1.45;1.35;;;;;;;-17.54;77.83;98970.34;4975931;29;20071;-95
2021/12/23 04:45:15;;;;;;;1.17;1.17;;;;;;;-17.55;77.93;98976.38;4979705;28;20031;-88
2021/12/23 04:47:43;;;;;;;1.67;1.50;;;;;;;-17.61;78.23;98966.38;4979054;28;20051;-94
2021/12/23 04:50:13;;;;;;;1.10;1.10;;;;;;;-17.55;78.33;98971.22;4978883;29;20078;-94
2021/12/23 04:52:41;;;;;;;1.48;1.38;;;;;;;-17.45;78.20;98976.81;4977390;29;20051;-94
2021/12/23 04:55:13;;;;;;;1.15;1.15;;;;;;;-17.41;78.34;98977.53;4977583;29;20039;-95
2021/12/23 04:57:43;;;;;;;1.00;1.00;;;;;;;-17.32;78.33;98979.66;4978934;29;20054;-94
2021/12/23 05:00:16;;;;;;;1.33;1.23;;;;;;;-17.24;78.22;98980.13;4978006;29;20031;-94
2021/12/23 05:02:43;;;;;;;1.23;1.20;;;;;;;-17.14;78.43;98981.41;4980060;28;20066;-87
2021/12/23 05:05:11;;;;;;;1.40;1.30;;;;;;;-17.04;78.20;98984.38;4980285;29;20077;-87
2021/12/23 05:08:03;;;;;;;1.23;1.20;;;;;;;-16.92;78.25;98985.56;4963265;29;20095;-85
2021/12/23 05:10:31;;;;;;;1.13;1.13;;;;;;;-16.86;77.95;98985.25;4979892;28;20126;-94
2021/12/23 05:12:59;;;;;;;1.40;1.30;;;;;;;-16.83;77.84;98985.94;4980277;28;20082;-87
2021/12/23 05:15:26;;;;;;;1.50;1.40;;;;;;;-16.78;77.93;98993.47;4980270;28;20043;-86
2021/12/23 05:17:53;;;;;;;1.00;1.00;;;;;;;-16.67;77.86;98996.34;4980059;28;20035;-91
2021/12/23 05:23:48;;;;;;;1.42;1.33;;;;;;;-16.57;77.59;98980.41;5062779;23;20039;-91
2021/12/23 05:26:20;;;;;;;1.20;1.20;;;;;;;-16.54;77.65;98977.66;4979000;28;20055;-93
2021/12/23 05:29:14;;;;;;;1.38;1.27;;;;;;;-16.25;78.07;99000.31;4978246;28;20032;-94
2021/12/23 05:31:42;;;;;;;1.53;1.43;;;;;;;-16.18;78.12;98981.03;4976855;28;20045;-94
2021/12/23 05:34:14;;;;;;;1.02;1.02;;;;;;;-15.93;78.29;98990.09;5005700;23;20067;-92
2021/12/23 05:36:42;;;;;;;1.08;1.08;;;;;;;-15.74;78.32;99003.75;4948764;29;20078;-94
2021/12/23 05:39:11;;;;;;;1.35;1.25;;;;;;;-15.56;78.80;98990.75;4954194;29;20051;-94
2021/12/23 05:41:39;;;;;;;1.33;1.23;;;;;;;-15.25;78.98;99007.22;4923060;29;20052;-95
2021/12/23 05:44:07;;;;;;;1.48;1.38;;;;;;;-15.20;79.23;98994.88;4953848;29;20067;-94
2021/12/23 05:46:41;;;;;;;1.30;1.20;;;;;;;-15.12;79.14;98983.16;4938698;29;20047;-94
2021/12/23 05:49:58;;;;;;;1.50;1.40;;;;;;;-14.80;79.05;98997.88;4937021;29;20062;-93
2021/12/23 05:52:29;;;;;;;1.48;1.38;;;;;;;-14.87;78.86;98985.25;4956237;29;20044;-93
2021/12/23 05:55:04;;;;;;;1.20;1.20;;;;;;;-14.77;78.70;98984.75;4938447;29;20075;-94
2021/12/23 05:57:32;;;;;;;1.33;1.23;;;;;;;-14.87;78.86;98974.88;4953012;29;20047;-94
2021/12/23 06:00:00;;;;;;;1.10;1.10;;;;;;;-14.69;78.84;98983.38;4956038;29;20066;-94
2021/12/23 06:02:38;;;;;;;1.42;1.33;;;;;;;-14.52;78.51;98981.56;4954062;29;20098;-93
2021/12/23 06:05:07;;;;;;;1.50;1.40;;;;;;;-14.49;78.39;98978.81;4941556;29;20119;-93
2021/12/23 06:07:44;;;;;;;1.23;1.20;;;;;;;-14.39;78.14;98985.13;4939482;29;20032;-93
2021/12/23 06:10:14;;;;;;;1.40;1.30;;;;;;;-14.36;78.24;98992.72;4917160;29;20060;-92
2021/12/23 06:12:44;;;;;;;1.50;1.40;;;;;;;-14.31;78.08;99005.44;4927999;29;20059;-93
2021/12/23 06:15:12;;;;;;;1.30;1.20;;;;;;;-14.21;78.30;99004.78;4930877;29;20052;-92
2021/12/23 06:17:40;;;;;;;1.10;1.10;;;;;;;-14.27;78.25;98981.00;4929076;29;20088;-92
2021/12/23 06:20:09;;;;;;;1.40;1.30;;;;;;;-14.24;78.09;98968.69;4932283;29;20025;-88
2021/12/23 06:22:39;;;;;;;1.38;1.27;;;;;;;-14.18;77.85;98985.63;4928314;29;20052;-94
2021/12/23 06:25:09;;;;;;;1.40;1.30;;;;;;;-14.16;77.89;98975.19;4928543;29;20060;-93
2021/12/23 06:27:38;;;;;;;1.50;1.40;;;;;;;-13.99;77.37;98975.03;4936938;29;20056;-92
2021/12/23 06:30:41;;;;;;;1.50;1.40;;;;;;;-13.93;77.16;98979.00;4911385;29;20052;-90
2021/12/23 06:33:02;;;;;;;1.25;1.20;;;;;;;-13.87;76.85;98979.50;4911923;29;20048;-88
2021/12/23 06:35:33;;;;;;;1.30;1.20;;;;;;;-13.78;76.88;98991.06;4923915;29;20048;-92
2021/12/23 06:38:05;;;;;;;1.17;1.17;;;;;;;-13.76;76.75;98994.41;4934015;29;20044;-93
2021/12/23 06:40:36;;;;;;;1.10;1.10;;;;;;;-13.77;76.72;98993.59;4933978;29;20114;-95
2021/12/23 06:43:06;;;;;;;1.15;1.10;;;;;;;-13.69;76.60;98993.13;4934197;29;20048;-89
2021/12/23 06:45:40;;;;;;;1.15;1.10;;;;;;;-13.67;76.70;98991.28;4948554;29;20052;-93
2021/12/23 06:48:08;;;;;;;1.60;1.50;;;;;;;-13.66;76.32;98987.75;4949005;29;20142;-93
2021/12/23 06:50:35;;;;;;;1.40;1.30;;;;;;;-13.68;76.44;98981.81;4862048;29;20079;-92
2021/12/23 06:53:08;;;;;;;1.40;1.30;;;;;;;-13.62;76.36;98985.78;4867158;29;20067;-92
2021/12/23 06:55:35;;;;;;;1.10;1.10;;;;;;;-13.82;76.88;98985.25;4944611;29;20040;-94
2021/12/23 06:58:30;;;;;;;1.10;1.10;;;;;;;-13.64;76.36;98983.31;4941147;29;20056;-93
2021/12/23 07:01:01;;;;;;;1.40;1.30;;;;;;;-13.63;76.39;98989.31;4931381;29;20224;-91
2021/12/23 07:03:47;;;;;;;1.05;1.05;;;;;;;-13.67;76.40;98985.22;4932020;29;20051;-92
2021/12/23 07:06:18;;;;;;;1.40;1.30;;;;;;;-13.66;76.34;98994.72;4931467;29;20059;-91
2021/12/23 07:08:47;;;;;;;1.13;1.13;;;;;;;-13.66;76.39;98986.91;4931816;29;20063;-92
2021/12/23 07:11:14;;;;;;;1.30;1.20;;;;;;;-13.67;76.36;98991.28;4938307;29;20036;-91
2021/12/23 07:13:59;;;;;;;1.50;1.40;;;;;;;-13.65;76.36;98983.38;4947528;29;20058;-94
2021/12/23 07:16:49;;;;;;;1.27;1.20;;;;;;;-13.52;75.85;98986.06;4864727;29;20045;-93
2021/12/23 07:19:35;;;;;;;1.60;1.50;;;;;;;-13.49;75.63;98985.88;4537244;29;10000061;-90
2021/12/23 07:22:03;;;;;;;1.60;1.50;;;;;;;-13.43;75.88;98990.72;4851772;29;20053;-90
2021/12/23 07:24:41;;;;;;;1.40;1.30;;;;;;;-13.34;75.73;98987.53;4904855;29;20056;-93
2021/12/23 07:27:12;;;;;;;1.50;1.40;;;;;;;-13.32;75.12;98983.94;4897202;29;20068;-93
2021/12/23 07:30:05;;;;;;;1.67;1.58;;;;;;;-13.35;74.97;98991.91;4893961;29;20129;-94
2021/12/23 07:32:54;;;;;;;1.50;1.40;;;;;;;-13.43;74.83;98978.56;5348363;23;20080;-91
2021/12/23 07:35:23;;;;;;;1.50;1.40;;;;;;;-13.29;75.02;98990.72;5032188;23;20061;-95
2021/12/23 07:37:52;;;;;;;1.50;1.40;;;;;;;-13.30;74.70;98977.81;4906666;29;20698;-91
2021/12/23 07:40:20;;;;;;;1.38;1.27;;;;;;;-13.17;74.63;98991.66;4923658;29;20036;-93
2021/12/23 07:42:56;;;;;;;1.10;1.10;;;;;;;-13.15;74.29;98988.03;4936796;29;20123;-91
2021/12/23 07:45:28;;;;;;;1.63;1.52;;;;;;;-12.82;74.09;98986.03;4952296;28;20062;-89
2021/12/23 07:47:56;;;;;;;1.40;1.30;;;;;;;-12.58;72.93;98994.00;4947176;29;20036;-93
2021/12/23 07:50:23;;;;;;;1.40;1.30;;;;;;;-12.72;72.94;98977.53;4925821;29;20055;-88
2021/12/23 07:52:51;;;;;;;1.60;1.50;;;;;;;-12.77;72.92;98992.59;4938241;29;20854;-90
2021/12/23 07:55:20;;;;;;;1.52;1.42;;;;;;;-12.69;72.85;98987.72;4938770;29;20059;-87
2021/12/23 07:57:48;;;;;;;1.58;1.48;;;;;;;-12.38;72.20;98983.16;4948002;29;20051;-91
2021/12/23 08:00:17;;;;;;;1.65;1.55;;;;;;;-12.28;71.37;98986.84;4953873;29;20098;-85
2021/12/23 08:03:06;;;;;;;1.73;1.63;;;;;;;-11.98;70.65;98977.91;4939302;29;20051;-85
2021/12/23 08:05:37;;;;;;;1.83;1.73;;;;;;;-11.61;69.83;98981.44;4930807;29;20109;-89
2021/12/23 08:08:30;;;;;;;1.67;1.58;;;;;;;-11.54;68.96;98976.63;4899603;29;20058;-90
2021/12/23 08:10:58;;;;;;;;;;;;;;;-11.57;68.62;98972.47;4917104;29;20059;-90
2021/12/23 08:13:27;;;;;;;1.80;1.70;;;;;;;-11.32;68.18;98972.53;4875405;29;19927;-92
2021/12/23 08:15:54;;;;;;;1.50;1.40;;;;;;;-11.01;66.92;98964.25;4873699;29;20180;-90
2021/12/23 08:18:22;;;;;;;1.70;1.60;;;;;;;-10.89;66.12;98974.72;4888180;29;20053;-90
2021/12/23 08:20:53;;;;;;;1.63;1.52;;;;;;;-11.08;66.18;98957.78;4875270;29;20053;-90
2021/12/23 08:23:26;;;;;;;1.90;1.80;;;;;;;-11.03;66.01;98953.09;4888924;29;20049;-92
2021/12/23 08:26:16;;;;;;;1.77;1.67;;;;;;;-10.89;65.76;98961.69;4846475;29;20061;-92
2021/12/23 08:28:57;;;;;;;1.60;1.50;;;;;;;-10.74;64.85;98966.63;4857546;29;20057;-92
2021/12/23 08:31:26;;;;;;;2.00;1.90;;;;;;;-10.70;64.14;98962.03;4888914;29;20257;-92
2021/12/23 08:33:59;;;;;;;2.00;1.90;;;;;;;-10.63;63.59;98947.59;4879637;29;20145;-91
2021/12/23 08:36:46;;;;;;;1.90;1.80;;;;;;;-10.01;63.15;98956.06;4849295;29;20048;-92
2021/12/23 08:39:23;;;;;;;1.90;1.80;;;;;;;-9.73;61.86;98958.25;4879233;29;20045;-89
2021/12/23 08:41:51;;;;;;;1.90;1.80;;;;;;;-9.94;62.02;98945.06;4880658;29;20064;-82
2021/12/23 08:44:21;;;;;;;1.80;1.70;;;;;;;-9.80;61.59;98959.66;4877287;29;20086;-88
2021/12/23 08:46:48;;;;;;;1.73;1.63;;;;;;;-9.47;60.37;98953.66;4907353;29;20048;-87
2021/12/23 08:49:16;;;;;;;1.70;1.60;;;;;;;-9.67;60.56;98949.97;4928097;29;20059;-89
2021/12/23 08:51:43;;;;;;;1.52;1.42;;;;;;;-9.58;60.70;98948.41;4918142;29;20059;-86
2021/12/23 08:54:10;;;;;;;1.70;1.60;;;;;;;-9.72;60.37;98961.69;4936161;29;20063;-87
2021/12/23 08:56:39;;;;;;;1.70;1.60;;;;;;;-9.81;60.85;98960.63;4915481;29;20056;-88
2021/12/23 08:59:12;;;;;;;1.80;1.70;;;;;;;-9.56;59.99;98958.75;4916054;29;20080;-87
2021/12/23 09:01:41;;;;;;;1.88;1.77;;;;;;;-9.37;59.76;98953.75;4922726;29;20146;-85
2021/12/23 09:04:12;;;;;;;1.80;1.70;;;;;;;-9.44;59.39;98956.03;4862455;29;20048;-86
2021/12/23 09:06:40;;;;;;;1.60;1.50;;;;;;;-9.70;59.40;98958.00;4933892;29;20075;-84
2021/12/23 09:09:08;;;;;;;1.77;1.67;;;;;;;-9.87;59.97;98950.66;4899936;29;20055;-84
2021/12/23 09:11:36;;;;;;;1.80;1.70;;;;;;;-9.67;60.02;98946.50;4914397;29;20059;-84
2021/12/23 09:14:04;;;;;;;1.60;1.50;;;;;;;-9.72;59.85;98946.00;4940598;29;20077;-90
2021/12/23 09:16:31;;;;;;;1.77;1.67;;;;;;;-9.77;60.44;98946.38;4931088;29;20128;-88
2021/12/23 09:18:59;;;;;;;1.73;1.63;;;;;;;-9.73;60.14;98942.56;4942607;29;20048;-89
2021/12/23 09:21:28;;;;;;;1.80;1.70;;;;;;;-9.60;59.51;98938.06;4870313;29;20060;-85
2021/12/23 09:24:02;;;;;;;1.70;1.60;;;;;;;-9.57;59.24;98938.78;4897408;29;20155;-87
2021/12/23 09:26:33;;;;;;;1.73;1.63;;;;;;;-9.54;59.58;98941.16;4878511;29;20064;-87
2021/12/23 09:29:09;;;;;;;1.52;1.42;;;;;;;-9.60;59.69;98922.38;4883717;29;20053;-85
2021/12/23 09:34:29;;;;;;;1.63;1.52;;;;;;;-10.21;60.64;98926.25;4891529;29;20053;-87
2021/12/23 09:36:57;;;;;;;1.70;1.60;;;;;;;-10.40;61.48;98927.66;4841731;29;1220179;-86
2021/12/23 09:39:29;;;;;;;1.80;1.70;;;;;;;-10.30;61.64;98922.59;4849161;29;20462;-86
2021/12/23 09:42:03;;;;;;;1.80;1.70;;;;;;;-9.88;61.22;98925.47;4880977;29;20041;-89
2021/12/23 09:44:36;;;;;;;1.75;1.65;;;;;;;-9.69;60.39;98920.50;4886661;29;20057;-87
2021/12/23 09:47:06;;;;;;;1.65;1.55;;;;;;;-9.65;59.84;98921.91;4862982;29;20057;-88
2021/12/23 09:49:34;;;;;;;1.75;1.65;;;;;;;-9.60;59.85;98925.00;4866397;29;20121;-88
2021/12/23 09:52:07;;;;;;;1.80;1.70;;;;;;;-9.36;59.00;98941.53;4888029;29;20088;-86
2021/12/23 09:54:38;;;;;;;1.73;1.63;;;;;;;-9.39;59.09;98937.38;4929510;29;20119;-88
2021/12/23 09:57:06;;;;;;;1.80;1.70;;;;;;;-9.28;58.90;98915.63;4922822;29;20059;-87
2021/12/23 09:59:37;;;;;;;2.00;1.90;;;;;;;-8.58;57.78;98923.03;4905110;29;20048;-88
2021/12/23 10:02:04;;;;;;;1.85;1.75;;;;;;;-8.47;57.22;98914.31;4936575;29;20495;-85
2021/12/23 10:04:32;;;;;;;1.80;1.70;;;;;;;-8.32;56.68;98922.66;4928895;29;20052;-86
2021/12/23 10:06:59;;;;;;;2.05;1.95;;;;;;;-8.32;55.96;98920.03;4899697;29;20080;-87
2021/12/23 10:09:43;;;;;;;1.70;1.60;;;;;;;-8.73;56.54;98922.50;4915864;29;20131;-86
2021/12/23 10:38:45;;;;;;;1.42;1.33;;;;;;;-11.01;64.89;98906.88;4844721;29;21036;-87
2021/12/23 10:41:22;;;;;;;1.35;1.25;;;;;;;-10.96;65.27;98909.13;4851542;29;20156;-87
2021/12/23 10:43:59;;;;;;;1.10;1.10;;;;;;;-10.87;65.17;98911.09;4844034;29;20103;-88
2021/12/23 10:46:35;;;;;;;1.50;1.40;;;;;;;-10.93;65.25;98908.94;4844936;29;20058;-88
2021/12/23 10:52:02;;;;;;;1.48;1.38;;;;;;;-11.10;65.89;98919.75;4855106;29;20060;-86
2021/12/23 11:00:12;;;;;;;1.40;1.30;;;;;;;-11.39;66.76;98904.41;4831992;29;20053;-87
2021/12/23 11:02:41;;;;;;;1.60;1.50;;;;;;;-11.43;67.37;98905.56;4880599;29;20056;-87
2021/12/23 11:05:21;;;;;;;1.50;1.40;;;;;;;-11.47;67.34;98902.31;4939907;29;20119;-86
2021/12/23 11:08:08;;;;;;;1.30;1.20;;;;;;;-11.49;67.73;98896.41;4940072;29;20119;-87
2021/12/23 11:27:52;;;;;;;1.50;1.40;;;;;;;-11.57;67.96;98891.75;4906643;29;20077;-88
2021/12/23 11:43:59;;;;;;;1.70;1.60;;;;;;;-11.40;67.98;98895.75;4943986;29;20044;-89
2021/12/23 11:46:37;;;;;;;1.38;1.27;;;;;;;-11.49;68.17;98900.75;4950172;29;20063;-90
2021/12/23 11:49:10;;;;;;;1.50;1.40;;;;;;;-11.57;68.42;98898.69;4948196;29;20055;-90
2021/12/23 11:51:47;;;;;;;1.58;1.48;;;;;;;-11.64;68.52;98892.28;4922348;29;20051;-92
2021/12/23 11:54:18;;;;;;;1.40;1.30;;;;;;;-11.67;68.70;98900.28;4933899;29;20056;-90
2021/12/23 11:56:50;;;;;;;1.50;1.40;;;;;;;-11.70;69.03;98908.31;4950640;29;20060;-91
2021/12/23 11:59:24;;;;;;;1.50;1.40;;;;;;;-11.83;69.14;98903.94;4936391;29;20440;-89
2021/12/23 12:01:53;;;;;;;1.50;1.40;;;;;;;-11.87;69.78;98902.53;4950512;29;20054;-88
2021/12/23 12:04:27;;;;;;;1.45;1.35;;;;;;;-11.93;70.29;98894.31;4937630;29;20047;-89
2021/12/23 12:07:19;;;;;;;1.50;1.40;;;;;;;-11.97;70.53;98900.66;4898655;29;20611;-90
2021/12/23 12:10:04;;;;;;;1.27;1.20;;;;;;;-12.06;71.00;98891.72;4913056;29;20083;-89
2021/12/23 12:12:35;;;;;;;1.65;1.55;;;;;;;-12.15;71.28;98882.78;4916778;29;20053;-93
2021/12/23 12:15:03;;;;;;;1.50;1.40;;;;;;;-12.21;71.27;98893.59;4896084;29;20056;-90
2021/12/23 12:17:36;;;;;;;1.58;1.48;;;;;;;-12.29;71.84;98891.50;4911393;29;20098;-91
2021/12/23 12:20:20;;;;;;;1.50;1.40;;;;;;;-12.33;72.24;98892.66;4912300;29;20082;-87
2021/12/23 12:22:55;;;;;;;1.48;1.38;;;;;;;-12.37;72.48;98887.75;4904515;29;20567;-88
2021/12/23 12:25:31;;;;;;;1.40;1.30;;;;;;;-12.37;72.39;98900.78;4901260;29;20107;-89
2021/12/23 12:28:25;;;;;;;1.38;1.27;;;;;;;-12.43;72.79;98894.19;4914719;29;20056;-89
2021/12/23 12:30:56;;;;;;;1.40;1.30;;;;;;;-12.51;72.87;98886.91;4882371;29;20076;-88
2021/12/23 12:33:26;;;;;;;1.40;1.30;;;;;;;-12.57;73.13;98889.91;4922580;29;20075;-91
2021/12/23 12:36:04;;;;;;;1.50;1.40;;;;;;;-12.64;73.47;98886.03;4935829;29;20104;-92
2021/12/23 12:38:36;;;;;;;1.42;1.33;;;;;;;-12.64;73.59;98877.41;4937363;29;20055;-93
2021/12/23 12:41:23;;;;;;;1.60;1.50;;;;;;;-12.62;73.75;98875.56;4868209;29;20063;-92
2021/12/23 12:44:27;;;;;;;1.40;1.30;;;;;;;-12.70;73.75;98891.66;4891684;29;20044;-91
2021/12/23 12:50:33;;;;;;;1.08;1.08;;;;;;;-12.85;74.49;98874.47;4561373;27;20035;-88
2021/12/23 12:53:10;;;;;;;1.20;1.17;;;;;;;-12.88;74.41;98891.94;4958653;29;20055;-90
2021/12/23 12:55:39;;;;;;;1.25;1.20;;;;;;;-12.99;74.57;98886.56;4912446;29;20234;-88
2021/12/23 12:58:36;;;;;;;1.25;1.17;;;;;;;-12.96;74.89;98890.75;4894311;29;20098;-90
2021/12/23 13:01:10;;;;;;;1.40;1.30;;;;;;;-13.12;75.25;98883.09;4902955;29;20539;-91
2021/12/23 13:03:52;;;;;;;1.52;1.42;;;;;;;-13.13;75.23;98889.25;4944434;29;20525;-91
2021/12/23 13:06:54;;;;;;;1.35;1.25;;;;;;;-13.12;74.95;98877.91;4914071;29;20066;-92
2021/12/23 13:10:19;;;;;;;1.42;1.33;;;;;;;-13.11;75.03;98890.81;4893921;29;20061;-89
2021/12/23 13:13:40;;;;;;;1.60;1.50;;;;;;;-13.06;75.00;98894.88;4898198;29;20123;-90
2021/12/23 13:19:35;;;;;;;1.50;1.40;;;;;;;-13.28;74.98;98872.91;5048047;23;20068;-90